ナンディ の空港の天気 - METARとTAF

ナンディ国際空港 ( NFFN / NAN ) - フィジー ナンディ (ビティレブ島)
飛行場実況気象(Metar)
観測時間07/29 13:00 FJT (07/29 01:00 UTC)
風向・風速北西 7m/s
視程10km以上
天気現象
少しの雲 雲底高度 850m
気温28℃
湿度66%
気圧1013hPa
METARNFFN 290100Z 32013KT 9999 FEW028 28/21 Q1013 NOSIG
過去の天気等 Google飛行場航空写真 Wunderground天気予報

過去48時間のMETAR

飛行場予報(TAF)
発表時間: 7/29 11:06 FJT (7/28 23:06 UTC)
予報対象時間: 29日12時 FJT ~ 30日12時 FJT
風向・風速南東 4m/s
視程10km以上
少しの雲 雲底高度 910m
29日13時 FJT ~ 29日15時 FJT に徐々に
風向・風速西北西 4m/s
29日18時 FJT ~ 29日20時 FJT に徐々に
風向・風速東南東 3m/s
TAF NFFN 282306Z 2900/2924 14008KT 9999 FEW030
BECMG 2901/2903 29007KT
BECMG 2906/2908 12005KT